sensor_id;sensor_type;location;lat;lon;timestamp;P1;durP1;ratioP1;P2;durP2;ratioP2
17153;SDS011;8692;52.164;7.558;2023-04-08T00:01:40;5.27;;;4.57;;
17153;SDS011;8692;52.164;7.558;2023-04-08T00:04:08;5.70;;;5.10;;
17153;SDS011;8692;52.164;7.558;2023-04-08T00:06:42;5.00;;;4.13;;
17153;SDS011;8692;52.164;7.558;2023-04-08T00:09:11;6.47;;;4.50;;
17153;SDS011;8692;52.164;7.558;2023-04-08T00:11:41;6.23;;;4.30;;
17153;SDS011;8692;52.164;7.558;2023-04-08T00:14:10;3.90;;;3.50;;
17153;SDS011;8692;52.164;7.558;2023-04-08T00:16:38;4.87;;;4.30;;
17153;SDS011;8692;52.164;7.558;2023-04-08T00:19:06;4.70;;;4.20;;
17153;SDS011;8692;52.164;7.558;2023-04-08T00:21:37;4.40;;;3.93;;
17153;SDS011;8692;52.164;7.558;2023-04-08T00:24:06;5.83;;;4.20;;
17153;SDS011;8692;52.164;7.558;2023-04-08T00:26:37;4.30;;;3.90;;
17153;SDS011;8692;52.164;7.558;2023-04-08T00:29:05;8.50;;;6.47;;
17153;SDS011;8692;52.164;7.558;2023-04-08T00:31:36;9.87;;;6.47;;
17153;SDS011;8692;52.164;7.558;2023-04-08T00:34:06;7.80;;;7.00;;
17153;SDS011;8692;52.164;7.558;2023-04-08T00:36:35;16.20;;;11.33;;
17153;SDS011;8692;52.164;7.558;2023-04-08T00:39:05;18.40;;;12.47;;
17153;SDS011;8692;52.164;7.558;2023-04-08T00:41:33;16.33;;;10.27;;
17153;SDS011;8692;52.164;7.558;2023-04-08T00:44:03;20.13;;;11.30;;
17153;SDS011;8692;52.164;7.558;2023-04-08T00:46:32;15.00;;;9.57;;
17153;SDS011;8692;52.164;7.558;2023-04-08T00:49:04;16.33;;;9.97;;
17153;SDS011;8692;52.164;7.558;2023-04-08T00:51:33;14.07;;;8.60;;
17153;SDS011;8692;52.164;7.558;2023-04-08T00:54:02;21.00;;;13.20;;
17153;SDS011;8692;52.164;7.558;2023-04-08T00:56:31;21.43;;;13.20;;
17153;SDS011;8692;52.164;7.558;2023-04-08T00:59:00;20.80;;;12.87;;
17153;SDS011;8692;52.164;7.558;2023-04-08T01:01:32;14.00;;;10.23;;
17153;SDS011;8692;52.164;7.558;2023-04-08T01:04:06;15.33;;;9.73;;
17153;SDS011;8692;52.164;7.558;2023-04-08T01:06:39;13.67;;;8.80;;
17153;SDS011;8692;52.164;7.558;2023-04-08T01:09:17;13.83;;;8.77;;
17153;SDS011;8692;52.164;7.558;2023-04-08T01:11:48;13.03;;;8.17;;
17153;SDS011;8692;52.164;7.558;2023-04-08T01:14:22;11.10;;;7.90;;
17153;SDS011;8692;52.164;7.558;2023-04-08T01:16:57;9.90;;;7.73;;
17153;SDS011;8692;52.164;7.558;2023-04-08T01:19:28;9.23;;;6.33;;
17153;SDS011;8692;52.164;7.558;2023-04-08T01:22:00;9.90;;;6.37;;
17153;SDS011;8692;52.164;7.558;2023-04-08T01:24:44;6.57;;;4.90;;
17153;SDS011;8692;52.164;7.558;2023-04-08T01:27:15;6.90;;;5.03;;
17153;SDS011;8692;52.164;7.558;2023-04-08T01:29:44;5.97;;;4.53;;
17153;SDS011;8692;52.164;7.558;2023-04-08T01:32:15;4.07;;;3.57;;
17153;SDS011;8692;52.164;7.558;2023-04-08T01:34:43;5.03;;;3.90;;
17153;SDS011;8692;52.164;7.558;2023-04-08T01:37:14;4.50;;;3.70;;
17153;SDS011;8692;52.164;7.558;2023-04-08T01:39:46;5.03;;;3.37;;
17153;SDS011;8692;52.164;7.558;2023-04-08T01:42:17;3.50;;;3.20;;
17153;SDS011;8692;52.164;7.558;2023-04-08T01:44:48;4.50;;;3.40;;
17153;SDS011;8692;52.164;7.558;2023-04-08T01:47:18;3.90;;;3.40;;
17153;SDS011;8692;52.164;7.558;2023-04-08T01:49:49;4.03;;;3.50;;
17153;SDS011;8692;52.164;7.558;2023-04-08T01:52:19;4.30;;;3.53;;
17153;SDS011;8692;52.164;7.558;2023-04-08T01:54:47;4.80;;;3.43;;
17153;SDS011;8692;52.164;7.558;2023-04-08T01:57:18;3.80;;;3.03;;
17153;SDS011;8692;52.164;7.558;2023-04-08T01:59:50;3.50;;;2.50;;
17153;SDS011;8692;52.164;7.558;2023-04-08T02:02:19;3.73;;;3.27;;
17153;SDS011;8692;52.164;7.558;2023-04-08T02:04:52;4.27;;;3.47;;
17153;SDS011;8692;52.164;7.558;2023-04-08T02:07:20;6.23;;;3.87;;
17153;SDS011;8692;52.164;7.558;2023-04-08T02:09:51;6.70;;;4.10;;
17153;SDS011;8692;52.164;7.558;2023-04-08T02:12:20;4.53;;;3.67;;
17153;SDS011;8692;52.164;7.558;2023-04-08T02:14:51;4.00;;;3.10;;
17153;SDS011;8692;52.164;7.558;2023-04-08T02:17:24;4.80;;;3.43;;
17153;SDS011;8692;52.164;7.558;2023-04-08T02:20:02;3.63;;;3.00;;
17153;SDS011;8692;52.164;7.558;2023-04-08T02:22:38;3.70;;;3.00;;
17153;SDS011;8692;52.164;7.558;2023-04-08T02:25:12;2.87;;;2.57;;
17153;SDS011;8692;52.164;7.558;2023-04-08T02:27:43;3.50;;;3.03;;
17153;SDS011;8692;52.164;7.558;2023-04-08T02:30:14;3.70;;;3.27;;
17153;SDS011;8692;52.164;7.558;2023-04-08T02:32:46;4.37;;;3.97;;
17153;SDS011;8692;52.164;7.558;2023-04-08T02:35:18;3.60;;;3.27;;
17153;SDS011;8692;52.164;7.558;2023-04-08T02:37:47;3.47;;;2.90;;
17153;SDS011;8692;52.164;7.558;2023-04-08T02:40:21;3.87;;;3.03;;
17153;SDS011;8692;52.164;7.558;2023-04-08T02:42:52;4.30;;;3.10;;
17153;SDS011;8692;52.164;7.558;2023-04-08T02:45:22;4.00;;;3.30;;
17153;SDS011;8692;52.164;7.558;2023-04-08T02:47:53;3.53;;;2.90;;
17153;SDS011;8692;52.164;7.558;2023-04-08T02:50:25;3.80;;;3.20;;
17153;SDS011;8692;52.164;7.558;2023-04-08T02:52:53;3.33;;;3.03;;
17153;SDS011;8692;52.164;7.558;2023-04-08T02:55:24;3.90;;;3.20;;
17153;SDS011;8692;52.164;7.558;2023-04-08T02:57:53;3.10;;;2.80;;
17153;SDS011;8692;52.164;7.558;2023-04-08T03:00:22;3.80;;;3.13;;
17153;SDS011;8692;52.164;7.558;2023-04-08T03:02:54;3.10;;;2.70;;
17153;SDS011;8692;52.164;7.558;2023-04-08T03:05:25;4.10;;;2.87;;
17153;SDS011;8692;52.164;7.558;2023-04-08T03:07:53;3.60;;;2.87;;
17153;SDS011;8692;52.164;7.558;2023-04-08T03:10:24;3.40;;;2.90;;
17153;SDS011;8692;52.164;7.558;2023-04-08T03:12:55;3.33;;;3.03;;
17153;SDS011;8692;52.164;7.558;2023-04-08T03:15:24;4.67;;;3.40;;
17153;SDS011;8692;52.164;7.558;2023-04-08T03:17:52;4.80;;;3.20;;
17153;SDS011;8692;52.164;7.558;2023-04-08T03:20:23;3.33;;;2.87;;
17153;SDS011;8692;52.164;7.558;2023-04-08T03:22:51;4.17;;;3.33;;
17153;SDS011;8692;52.164;7.558;2023-04-08T03:25:19;3.10;;;2.80;;
17153;SDS011;8692;52.164;7.558;2023-04-08T03:27:47;3.80;;;3.30;;
17153;SDS011;8692;52.164;7.558;2023-04-08T03:30:20;3.40;;;2.80;;
17153;SDS011;8692;52.164;7.558;2023-04-08T03:32:50;4.10;;;3.43;;
17153;SDS011;8692;52.164;7.558;2023-04-08T03:35:19;4.80;;;3.10;;
17153;SDS011;8692;52.164;7.558;2023-04-08T03:37:47;3.50;;;3.20;;
17153;SDS011;8692;52.164;7.558;2023-04-08T03:40:17;3.57;;;3.20;;
17153;SDS011;8692;52.164;7.558;2023-04-08T03:42:48;3.37;;;3.00;;
17153;SDS011;8692;52.164;7.558;2023-04-08T03:45:17;4.50;;;3.00;;
17153;SDS011;8692;52.164;7.558;2023-04-08T03:47:46;3.43;;;2.77;;
17153;SDS011;8692;52.164;7.558;2023-04-08T03:50:15;2.97;;;2.63;;
17153;SDS011;8692;52.164;7.558;2023-04-08T03:52:45;2.90;;;2.60;;
17153;SDS011;8692;52.164;7.558;2023-04-08T03:55:13;3.27;;;2.97;;
17153;SDS011;8692;52.164;7.558;2023-04-08T03:57:42;4.97;;;3.13;;
17153;SDS011;8692;52.164;7.558;2023-04-08T04:00:11;3.87;;;3.10;;
17153;SDS011;8692;52.164;7.558;2023-04-08T04:02:43;3.70;;;2.90;;
17153;SDS011;8692;52.164;7.558;2023-04-08T04:05:13;4.20;;;3.33;;
17153;SDS011;8692;52.164;7.558;2023-04-08T04:07:43;4.73;;;3.40;;
17153;SDS011;8692;52.164;7.558;2023-04-08T04:10:13;4.83;;;3.33;;
17153;SDS011;8692;52.164;7.558;2023-04-08T04:12:44;7.27;;;4.20;;
17153;SDS011;8692;52.164;7.558;2023-04-08T04:15:13;3.50;;;3.17;;
17153;SDS011;8692;52.164;7.558;2023-04-08T04:17:41;4.57;;;3.90;;
17153;SDS011;8692;52.164;7.558;2023-04-08T04:20:13;5.43;;;3.70;;
17153;SDS011;8692;52.164;7.558;2023-04-08T04:22:41;3.87;;;3.43;;
17153;SDS011;8692;52.164;7.558;2023-04-08T04:25:09;4.43;;;3.63;;
17153;SDS011;8692;52.164;7.558;2023-04-08T04:27:38;3.40;;;3.10;;
17153;SDS011;8692;52.164;7.558;2023-04-08T04:30:06;4.13;;;3.23;;
17153;SDS011;8692;52.164;7.558;2023-04-08T04:32:36;3.73;;;3.10;;
17153;SDS011;8692;52.164;7.558;2023-04-08T04:35:04;4.10;;;3.00;;
17153;SDS011;8692;52.164;7.558;2023-04-08T04:37:33;3.43;;;2.87;;
17153;SDS011;8692;52.164;7.558;2023-04-08T04:40:02;4.03;;;3.10;;
17153;SDS011;8692;52.164;7.558;2023-04-08T04:42:33;3.00;;;2.70;;
17153;SDS011;8692;52.164;7.558;2023-04-08T04:45:01;3.93;;;3.50;;
17153;SDS011;8692;52.164;7.558;2023-04-08T04:47:29;4.07;;;3.50;;
17153;SDS011;8692;52.164;7.558;2023-04-08T04:49:58;3.73;;;3.13;;
17153;SDS011;8692;52.164;7.558;2023-04-08T04:52:26;3.50;;;3.20;;
17153;SDS011;8692;52.164;7.558;2023-04-08T04:54:57;3.90;;;3.50;;
17153;SDS011;8692;52.164;7.558;2023-04-08T04:57:25;5.57;;;3.83;;
17153;SDS011;8692;52.164;7.558;2023-04-08T04:59:53;3.83;;;3.27;;
17153;SDS011;8692;52.164;7.558;2023-04-08T05:02:24;3.47;;;3.10;;
17153;SDS011;8692;52.164;7.558;2023-04-08T05:04:55;3.43;;;2.83;;
17153;SDS011;8692;52.164;7.558;2023-04-08T05:07:23;4.23;;;3.30;;
17153;SDS011;8692;52.164;7.558;2023-04-08T05:09:51;4.43;;;3.63;;
17153;SDS011;8692;52.164;7.558;2023-04-08T05:12:22;4.33;;;3.27;;
17153;SDS011;8692;52.164;7.558;2023-04-08T05:14:50;5.97;;;4.13;;
17153;SDS011;8692;52.164;7.558;2023-04-08T05:17:18;6.37;;;3.87;;
17153;SDS011;8692;52.164;7.558;2023-04-08T05:19:46;6.07;;;3.80;;
17153;SDS011;8692;52.164;7.558;2023-04-08T05:22:15;3.70;;;3.30;;
17153;SDS011;8692;52.164;7.558;2023-04-08T05:24:43;4.80;;;4.10;;
17153;SDS011;8692;52.164;7.558;2023-04-08T05:27:11;3.90;;;3.20;;
17153;SDS011;8692;52.164;7.558;2023-04-08T05:29:43;4.40;;;3.97;;
17153;SDS011;8692;52.164;7.558;2023-04-08T05:32:11;5.07;;;4.57;;
17153;SDS011;8692;52.164;7.558;2023-04-08T05:34:39;5.03;;;4.20;;
17153;SDS011;8692;52.164;7.558;2023-04-08T05:37:07;5.00;;;3.97;;
17153;SDS011;8692;52.164;7.558;2023-04-08T05:39:35;5.77;;;4.17;;
17153;SDS011;8692;52.164;7.558;2023-04-08T05:42:04;5.30;;;4.70;;
17153;SDS011;8692;52.164;7.558;2023-04-08T05:44:32;5.10;;;4.60;;
17153;SDS011;8692;52.164;7.558;2023-04-08T05:47:01;5.17;;;4.20;;
17153;SDS011;8692;52.164;7.558;2023-04-08T05:49:30;4.83;;;3.97;;
17153;SDS011;8692;52.164;7.558;2023-04-08T05:51:58;4.53;;;3.90;;
17153;SDS011;8692;52.164;7.558;2023-04-08T05:54:28;6.00;;;4.63;;
17153;SDS011;8692;52.164;7.558;2023-04-08T05:56:59;5.10;;;4.60;;
17153;SDS011;8692;52.164;7.558;2023-04-08T05:59:27;5.20;;;4.53;;
17153;SDS011;8692;52.164;7.558;2023-04-08T06:01:57;6.93;;;4.87;;
17153;SDS011;8692;52.164;7.558;2023-04-08T06:04:27;5.83;;;4.20;;
17153;SDS011;8692;52.164;7.558;2023-04-08T06:06:55;5.10;;;4.10;;
17153;SDS011;8692;52.164;7.558;2023-04-08T06:09:25;5.23;;;4.23;;
17153;SDS011;8692;52.164;7.558;2023-04-08T06:11:53;5.07;;;4.57;;
17153;SDS011;8692;52.164;7.558;2023-04-08T06:14:23;6.67;;;4.83;;
17153;SDS011;8692;52.164;7.558;2023-04-08T06:16:54;5.70;;;4.63;;
17153;SDS011;8692;52.164;7.558;2023-04-08T06:19:23;4.63;;;4.07;;
17153;SDS011;8692;52.164;7.558;2023-04-08T06:21:55;5.90;;;4.77;;
17153;SDS011;8692;52.164;7.558;2023-04-08T06:24:24;4.90;;;4.40;;
17153;SDS011;8692;52.164;7.558;2023-04-08T06:26:53;5.23;;;4.60;;
17153;SDS011;8692;52.164;7.558;2023-04-08T06:29:21;10.37;;;5.27;;
17153;SDS011;8692;52.164;7.558;2023-04-08T06:31:51;7.67;;;5.43;;
17153;SDS011;8692;52.164;7.558;2023-04-08T06:34:19;6.73;;;6.00;;
17153;SDS011;8692;52.164;7.558;2023-04-08T06:36:48;6.50;;;5.43;;
17153;SDS011;8692;52.164;7.558;2023-04-08T06:39:18;9.60;;;6.23;;
17153;SDS011;8692;52.164;7.558;2023-04-08T06:41:46;7.33;;;5.60;;
17153;SDS011;8692;52.164;7.558;2023-04-08T06:44:31;7.37;;;6.33;;
17153;SDS011;8692;52.164;7.558;2023-04-08T06:47:02;6.97;;;6.27;;
17153;SDS011;8692;52.164;7.558;2023-04-08T06:49:30;8.33;;;6.43;;
17153;SDS011;8692;52.164;7.558;2023-04-08T06:51:58;8.57;;;6.47;;
17153;SDS011;8692;52.164;7.558;2023-04-08T06:54:30;6.50;;;5.83;;
17153;SDS011;8692;52.164;7.558;2023-04-08T06:56:58;8.30;;;7.03;;
17153;SDS011;8692;52.164;7.558;2023-04-08T06:59:27;9.00;;;6.50;;
17153;SDS011;8692;52.164;7.558;2023-04-08T07:01:55;7.87;;;7.03;;
17153;SDS011;8692;52.164;7.558;2023-04-08T07:04:23;7.20;;;6.27;;
17153;SDS011;8692;52.164;7.558;2023-04-08T07:06:52;8.83;;;7.10;;
17153;SDS011;8692;52.164;7.558;2023-04-08T07:09:20;7.40;;;6.47;;
17153;SDS011;8692;52.164;7.558;2023-04-08T07:11:49;8.70;;;7.20;;
17153;SDS011;8692;52.164;7.558;2023-04-08T07:14:17;7.67;;;6.87;;
17153;SDS011;8692;52.164;7.558;2023-04-08T07:16:48;8.03;;;7.20;;
17153;SDS011;8692;52.164;7.558;2023-04-08T07:19:16;7.87;;;6.87;;
17153;SDS011;8692;52.164;7.558;2023-04-08T07:21:44;9.30;;;7.90;;
17153;SDS011;8692;52.164;7.558;2023-04-08T07:24:12;10.00;;;7.80;;
17153;SDS011;8692;52.164;7.558;2023-04-08T07:26:41;8.70;;;7.80;;
17153;SDS011;8692;52.164;7.558;2023-04-08T07:29:10;8.83;;;6.83;;
17153;SDS011;8692;52.164;7.558;2023-04-08T07:31:38;7.00;;;6.30;;
17153;SDS011;8692;52.164;7.558;2023-04-08T07:34:06;8.17;;;7.13;;
17153;SDS011;8692;52.164;7.558;2023-04-08T07:36:37;8.13;;;7.20;;
17153;SDS011;8692;52.164;7.558;2023-04-08T07:39:06;9.17;;;7.23;;
17153;SDS011;8692;52.164;7.558;2023-04-08T07:41:34;9.23;;;7.43;;
17153;SDS011;8692;52.164;7.558;2023-04-08T07:44:04;8.53;;;7.60;;
17153;SDS011;8692;52.164;7.558;2023-04-08T07:46:36;8.30;;;7.23;;
17153;SDS011;8692;52.164;7.558;2023-04-08T07:49:05;10.60;;;8.23;;
17153;SDS011;8692;52.164;7.558;2023-04-08T07:51:33;8.87;;;7.97;;
17153;SDS011;8692;52.164;7.558;2023-04-08T07:54:01;11.23;;;8.97;;
17153;SDS011;8692;52.164;7.558;2023-04-08T07:56:29;10.17;;;8.27;;
17153;SDS011;8692;52.164;7.558;2023-04-08T07:58:58;8.87;;;7.77;;
17153;SDS011;8692;52.164;7.558;2023-04-08T08:01:26;11.83;;;8.57;;
17153;SDS011;8692;52.164;7.558;2023-04-08T08:04:00;10.40;;;8.20;;
17153;SDS011;8692;52.164;7.558;2023-04-08T08:06:29;10.73;;;8.50;;
17153;SDS011;8692;52.164;7.558;2023-04-08T08:08:57;10.83;;;9.00;;
17153;SDS011;8692;52.164;7.558;2023-04-08T08:11:26;9.53;;;8.50;;
17153;SDS011;8692;52.164;7.558;2023-04-08T08:13:54;12.30;;;9.10;;
17153;SDS011;8692;52.164;7.558;2023-04-08T08:16:22;10.50;;;8.67;;
17153;SDS011;8692;52.164;7.558;2023-04-08T08:18:54;11.43;;;9.23;;
17153;SDS011;8692;52.164;7.558;2023-04-08T08:21:24;11.03;;;8.93;;
17153;SDS011;8692;52.164;7.558;2023-04-08T08:23:53;9.23;;;7.60;;
17153;SDS011;8692;52.164;7.558;2023-04-08T08:26:22;12.23;;;8.93;;
17153;SDS011;8692;52.164;7.558;2023-04-08T08:28:50;10.90;;;8.47;;
17153;SDS011;8692;52.164;7.558;2023-04-08T08:31:18;13.23;;;9.30;;
17153;SDS011;8692;52.164;7.558;2023-04-08T08:33:46;10.50;;;8.53;;
17153;SDS011;8692;52.164;7.558;2023-04-08T08:36:17;11.17;;;8.87;;
17153;SDS011;8692;52.164;7.558;2023-04-08T08:38:49;10.80;;;9.10;;
17153;SDS011;8692;52.164;7.558;2023-04-08T08:41:21;9.33;;;8.40;;
17153;SDS011;8692;52.164;7.558;2023-04-08T08:43:50;9.47;;;8.27;;
17153;SDS011;8692;52.164;7.558;2023-04-08T08:46:19;12.97;;;9.27;;
17153;SDS011;8692;52.164;7.558;2023-04-08T08:48:50;9.83;;;8.83;;
17153;SDS011;8692;52.164;7.558;2023-04-08T08:51:18;11.17;;;8.97;;
17153;SDS011;8692;52.164;7.558;2023-04-08T08:53:46;11.57;;;8.97;;
17153;SDS011;8692;52.164;7.558;2023-04-08T08:56:16;9.63;;;8.63;;
17153;SDS011;8692;52.164;7.558;2023-04-08T08:58:44;10.27;;;8.63;;
17153;SDS011;8692;52.164;7.558;2023-04-08T09:01:32;10.13;;;8.60;;
17153;SDS011;8692;52.164;7.558;2023-04-08T09:04:06;10.17;;;8.70;;
17153;SDS011;8692;52.164;7.558;2023-04-08T09:06:36;11.53;;;9.47;;
17153;SDS011;8692;52.164;7.558;2023-04-08T09:09:05;12.43;;;9.13;;
17153;SDS011;8692;52.164;7.558;2023-04-08T09:11:37;12.43;;;9.13;;
17153;SDS011;8692;52.164;7.558;2023-04-08T09:14:21;10.20;;;8.50;;
17153;SDS011;8692;52.164;7.558;2023-04-08T09:16:51;10.07;;;8.73;;
17153;SDS011;8692;52.164;7.558;2023-04-08T09:19:20;11.77;;;9.30;;
17153;SDS011;8692;52.164;7.558;2023-04-08T09:22:03;11.27;;;8.93;;
17153;SDS011;8692;52.164;7.558;2023-04-08T09:24:32;9.50;;;8.37;;
17153;SDS011;8692;52.164;7.558;2023-04-08T09:27:06;10.50;;;8.70;;
17153;SDS011;8692;52.164;7.558;2023-04-08T09:29:34;10.27;;;8.60;;
17153;SDS011;8692;52.164;7.558;2023-04-08T09:32:05;9.60;;;8.57;;
17153;SDS011;8692;52.164;7.558;2023-04-08T09:34:33;10.63;;;8.60;;
17153;SDS011;8692;52.164;7.558;2023-04-08T09:37:02;9.93;;;8.93;;
17153;SDS011;8692;52.164;7.558;2023-04-08T09:39:30;14.90;;;9.47;;
17153;SDS011;8692;52.164;7.558;2023-04-08T09:41:58;10.13;;;9.07;;
17153;SDS011;8692;52.164;7.558;2023-04-08T09:44:30;9.93;;;8.90;;
17153;SDS011;8692;52.164;7.558;2023-04-08T09:47:00;10.07;;;8.77;;
17153;SDS011;8692;52.164;7.558;2023-04-08T09:49:37;10.33;;;8.97;;
17153;SDS011;8692;52.164;7.558;2023-04-08T09:52:12;10.97;;;9.67;;
17153;SDS011;8692;52.164;7.558;2023-04-08T09:54:47;10.17;;;9.03;;
17153;SDS011;8692;52.164;7.558;2023-04-08T09:57:20;11.73;;;10.47;;
17153;SDS011;8692;52.164;7.558;2023-04-08T09:59:56;11.03;;;9.93;;
17153;SDS011;8692;52.164;7.558;2023-04-08T10:02:40;14.57;;;10.33;;
17153;SDS011;8692;52.164;7.558;2023-04-08T10:05:14;11.07;;;9.67;;
17153;SDS011;8692;52.164;7.558;2023-04-08T10:07:44;11.37;;;10.27;;
17153;SDS011;8692;52.164;7.558;2023-04-08T10:10:12;11.07;;;9.97;;
17153;SDS011;8692;52.164;7.558;2023-04-08T10:12:43;11.00;;;9.47;;
17153;SDS011;8692;52.164;7.558;2023-04-08T10:15:22;10.90;;;9.80;;
17153;SDS011;8692;52.164;7.558;2023-04-08T10:17:52;12.73;;;10.13;;
17153;SDS011;8692;52.164;7.558;2023-04-08T10:23:11;11.40;;;10.07;;
17153;SDS011;8692;52.164;7.558;2023-04-08T10:25:43;12.80;;;10.67;;
17153;SDS011;8692;52.164;7.558;2023-04-08T10:28:23;13.23;;;10.77;;
17153;SDS011;8692;52.164;7.558;2023-04-08T10:30:54;12.37;;;10.40;;
17153;SDS011;8692;52.164;7.558;2023-04-08T10:33:30;12.10;;;10.50;;
17153;SDS011;8692;52.164;7.558;2023-04-08T10:36:07;11.53;;;10.33;;
17153;SDS011;8692;52.164;7.558;2023-04-08T10:38:37;12.43;;;11.10;;
17153;SDS011;8692;52.164;7.558;2023-04-08T10:41:08;14.13;;;12.33;;
17153;SDS011;8692;52.164;7.558;2023-04-08T10:43:37;12.10;;;10.50;;
17153;SDS011;8692;52.164;7.558;2023-04-08T10:46:10;12.93;;;11.63;;
17153;SDS011;8692;52.164;7.558;2023-04-08T10:48:38;12.20;;;10.90;;
17153;SDS011;8692;52.164;7.558;2023-04-08T10:51:08;12.17;;;10.60;;
17153;SDS011;8692;52.164;7.558;2023-04-08T10:53:39;12.43;;;11.03;;
17153;SDS011;8692;52.164;7.558;2023-04-08T10:56:08;13.10;;;11.40;;
17153;SDS011;8692;52.164;7.558;2023-04-08T10:58:46;13.80;;;12.33;;
17153;SDS011;8692;52.164;7.558;2023-04-08T11:01:16;13.47;;;12.03;;
17153;SDS011;8692;52.164;7.558;2023-04-08T11:03:45;14.03;;;11.37;;
17153;SDS011;8692;52.164;7.558;2023-04-08T11:06:14;15.47;;;12.70;;
17153;SDS011;8692;52.164;7.558;2023-04-08T11:08:42;17.87;;;12.83;;
17153;SDS011;8692;52.164;7.558;2023-04-08T11:11:11;14.03;;;12.17;;
17153;SDS011;8692;52.164;7.558;2023-04-08T11:13:40;13.43;;;11.50;;
17153;SDS011;8692;52.164;7.558;2023-04-08T11:16:19;12.73;;;10.80;;
17153;SDS011;8692;52.164;7.558;2023-04-08T11:18:49;14.03;;;12.53;;
17153;SDS011;8692;52.164;7.558;2023-04-08T11:21:17;13.97;;;12.47;;
17153;SDS011;8692;52.164;7.558;2023-04-08T11:23:50;15.13;;;12.30;;
17153;SDS011;8692;52.164;7.558;2023-04-08T11:26:19;18.50;;;14.87;;
17153;SDS011;8692;52.164;7.558;2023-04-08T11:28:48;17.57;;;13.93;;
17153;SDS011;8692;52.164;7.558;2023-04-08T11:31:17;16.43;;;14.27;;
17153;SDS011;8692;52.164;7.558;2023-04-08T11:33:53;16.27;;;14.57;;
17153;SDS011;8692;52.164;7.558;2023-04-08T11:36:24;18.73;;;15.50;;
17153;SDS011;8692;52.164;7.558;2023-04-08T11:38:55;17.00;;;14.93;;
17153;SDS011;8692;52.164;7.558;2023-04-08T11:41:23;18.80;;;15.83;;
17153;SDS011;8692;52.164;7.558;2023-04-08T11:44:02;17.27;;;15.03;;
17153;SDS011;8692;52.164;7.558;2023-04-08T11:46:32;17.63;;;14.60;;
17153;SDS011;8692;52.164;7.558;2023-04-08T11:49:03;16.80;;;15.00;;
17153;SDS011;8692;52.164;7.558;2023-04-08T11:51:33;19.10;;;16.20;;
17153;SDS011;8692;52.164;7.558;2023-04-08T11:54:03;19.77;;;17.20;;
17153;SDS011;8692;52.164;7.558;2023-04-08T11:56:43;21.90;;;17.93;;
17153;SDS011;8692;52.164;7.558;2023-04-08T11:59:15;19.30;;;16.83;;
17153;SDS011;8692;52.164;7.558;2023-04-08T12:01:44;23.17;;;17.87;;
17153;SDS011;8692;52.164;7.558;2023-04-08T12:04:12;20.47;;;17.07;;
17153;SDS011;8692;52.164;7.558;2023-04-08T12:06:43;20.87;;;16.77;;
17153;SDS011;8692;52.164;7.558;2023-04-08T12:09:14;20.63;;;17.23;;
17153;SDS011;8692;52.164;7.558;2023-04-08T12:11:43;23.23;;;17.07;;
17153;SDS011;8692;52.164;7.558;2023-04-08T12:14:11;21.33;;;17.37;;
17153;SDS011;8692;52.164;7.558;2023-04-08T12:16:39;21.73;;;17.77;;
17153;SDS011;8692;52.164;7.558;2023-04-08T12:19:11;19.37;;;17.33;;
17153;SDS011;8692;52.164;7.558;2023-04-08T12:21:39;22.27;;;17.93;;
17153;SDS011;8692;52.164;7.558;2023-04-08T12:24:07;23.53;;;18.10;;
17153;SDS011;8692;52.164;7.558;2023-04-08T12:26:36;20.73;;;18.00;;
17153;SDS011;8692;52.164;7.558;2023-04-08T12:29:04;21.97;;;17.80;;
17153;SDS011;8692;52.164;7.558;2023-04-08T12:31:37;22.17;;;18.23;;
17153;SDS011;8692;52.164;7.558;2023-04-08T12:34:05;23.67;;;18.90;;
17153;SDS011;8692;52.164;7.558;2023-04-08T12:36:35;22.27;;;18.23;;
17153;SDS011;8692;52.164;7.558;2023-04-08T12:39:08;19.63;;;15.80;;
17153;SDS011;8692;52.164;7.558;2023-04-08T12:41:40;22.03;;;18.07;;
17153;SDS011;8692;52.164;7.558;2023-04-08T12:44:08;22.17;;;18.90;;
17153;SDS011;8692;52.164;7.558;2023-04-08T12:46:36;22.87;;;20.33;;
17153;SDS011;8692;52.164;7.558;2023-04-08T12:49:04;22.57;;;18.30;;
17153;SDS011;8692;52.164;7.558;2023-04-08T12:51:34;22.33;;;18.33;;
17153;SDS011;8692;52.164;7.558;2023-04-08T12:54:03;20.70;;;17.80;;
17153;SDS011;8692;52.164;7.558;2023-04-08T12:56:33;24.30;;;19.20;;
17153;SDS011;8692;52.164;7.558;2023-04-08T12:59:04;20.97;;;18.73;;
17153;SDS011;8692;52.164;7.558;2023-04-08T13:01:34;20.90;;;17.03;;
17153;SDS011;8692;52.164;7.558;2023-04-08T13:04:04;22.77;;;19.03;;
17153;SDS011;8692;52.164;7.558;2023-04-08T13:06:34;22.73;;;18.87;;
17153;SDS011;8692;52.164;7.558;2023-04-08T13:09:02;24.10;;;18.87;;
17153;SDS011;8692;52.164;7.558;2023-04-08T13:11:33;22.97;;;19.20;;
17153;SDS011;8692;52.164;7.558;2023-04-08T13:14:01;25.00;;;20.07;;
17153;SDS011;8692;52.164;7.558;2023-04-08T13:16:30;24.33;;;19.43;;
17153;SDS011;8692;52.164;7.558;2023-04-08T13:19:00;24.37;;;19.33;;
17153;SDS011;8692;52.164;7.558;2023-04-08T13:21:30;25.50;;;20.03;;
17153;SDS011;8692;52.164;7.558;2023-04-08T13:24:00;25.07;;;19.97;;
17153;SDS011;8692;52.164;7.558;2023-04-08T13:26:28;26.00;;;20.47;;
17153;SDS011;8692;52.164;7.558;2023-04-08T13:28:56;24.10;;;19.13;;
17153;SDS011;8692;52.164;7.558;2023-04-08T13:31:25;21.90;;;18.80;;
17153;SDS011;8692;52.164;7.558;2023-04-08T13:33:56;24.80;;;19.47;;
17153;SDS011;8692;52.164;7.558;2023-04-08T13:36:26;23.50;;;19.73;;
17153;SDS011;8692;52.164;7.558;2023-04-08T13:38:55;26.83;;;19.30;;
17153;SDS011;8692;52.164;7.558;2023-04-08T13:41:26;20.80;;;18.53;;
17153;SDS011;8692;52.164;7.558;2023-04-08T13:43:55;23.43;;;19.40;;
17153;SDS011;8692;52.164;7.558;2023-04-08T13:46:26;24.90;;;19.27;;
17153;SDS011;8692;52.164;7.558;2023-04-08T13:48:54;25.73;;;19.17;;
17153;SDS011;8692;52.164;7.558;2023-04-08T13:51:24;25.13;;;19.83;;
17153;SDS011;8692;52.164;7.558;2023-04-08T13:53:52;25.60;;;19.80;;
17153;SDS011;8692;52.164;7.558;2023-04-08T13:56:21;25.57;;;20.33;;
17153;SDS011;8692;52.164;7.558;2023-04-08T13:58:53;23.03;;;19.53;;
17153;SDS011;8692;52.164;7.558;2023-04-08T14:01:23;22.40;;;17.87;;
17153;SDS011;8692;52.164;7.558;2023-04-08T14:03:51;22.50;;;18.53;;
17153;SDS011;8692;52.164;7.558;2023-04-08T14:06:19;27.67;;;20.23;;
17153;SDS011;8692;52.164;7.558;2023-04-08T14:08:47;28.53;;;20.40;;
17153;SDS011;8692;52.164;7.558;2023-04-08T14:11:16;25.83;;;20.90;;
17153;SDS011;8692;52.164;7.558;2023-04-08T14:13:47;25.37;;;18.97;;
17153;SDS011;8692;52.164;7.558;2023-04-08T14:16:17;24.63;;;20.07;;
17153;SDS011;8692;52.164;7.558;2023-04-08T14:18:45;23.50;;;18.97;;
17153;SDS011;8692;52.164;7.558;2023-04-08T14:21:14;25.80;;;20.07;;
17153;SDS011;8692;52.164;7.558;2023-04-08T14:23:43;24.50;;;19.67;;
17153;SDS011;8692;52.164;7.558;2023-04-08T14:26:12;24.50;;;19.63;;
17153;SDS011;8692;52.164;7.558;2023-04-08T14:28:40;27.23;;;19.40;;
17153;SDS011;8692;52.164;7.558;2023-04-08T14:31:08;27.57;;;20.00;;
17153;SDS011;8692;52.164;7.558;2023-04-08T14:33:41;26.30;;;19.67;;
17153;SDS011;8692;52.164;7.558;2023-04-08T14:36:09;27.60;;;20.57;;
17153;SDS011;8692;52.164;7.558;2023-04-08T14:38:41;23.77;;;19.97;;
17153;SDS011;8692;52.164;7.558;2023-04-08T14:41:11;24.43;;;18.53;;
17153;SDS011;8692;52.164;7.558;2023-04-08T14:43:42;25.87;;;19.57;;
17153;SDS011;8692;52.164;7.558;2023-04-08T14:46:12;25.97;;;20.40;;
17153;SDS011;8692;52.164;7.558;2023-04-08T14:48:44;25.40;;;18.97;;
17153;SDS011;8692;52.164;7.558;2023-04-08T14:51:12;24.90;;;19.70;;
17153;SDS011;8692;52.164;7.558;2023-04-08T14:53:43;29.13;;;19.83;;
17153;SDS011;8692;52.164;7.558;2023-04-08T14:56:13;27.97;;;19.77;;
17153;SDS011;8692;52.164;7.558;2023-04-08T14:58:44;24.27;;;19.47;;
17153;SDS011;8692;52.164;7.558;2023-04-08T15:01:12;27.07;;;20.37;;
17153;SDS011;8692;52.164;7.558;2023-04-08T15:03:44;25.60;;;19.10;;
17153;SDS011;8692;52.164;7.558;2023-04-08T15:06:13;26.57;;;19.90;;
17153;SDS011;8692;52.164;7.558;2023-04-08T15:08:43;26.17;;;19.83;;
17153;SDS011;8692;52.164;7.558;2023-04-08T15:11:11;28.00;;;20.50;;